Time;durP1;ratioP1;P1;durP2;ratioP2;P2;SDS_P1;SDS_P2;PMS_P1;PMS_P2;Temp;Humidity;BMP_temperature;BMP_pressure;BME280_temperature;BME280_humidity;BME280_pressure;Samples;Min_cycle;Max_cycle;Signal;HPM_P1;HPM_P2
2023/04/25 00:01:04;;;;;;;2.72;1.48;;;16.00;57.70;;;;;;5072321;28;20230;-62
2023/04/25 00:03:31;;;;;;;3.90;2.03;;;16.00;57.70;;;;;;5071743;28;20183;-63
2023/04/25 00:05:58;;;;;;;2.15;1.13;;;16.00;57.70;;;;;;5072379;28;20240;-62
2023/04/25 00:08:24;;;;;;;2.28;1.30;;;16.00;57.70;;;;;;5071980;28;20538;-62
2023/04/25 00:10:50;;;;;;;3.25;1.20;;;16.00;57.70;;;;;;5070416;28;20174;-62
2023/04/25 00:13:17;;;;;;;2.30;1.42;;;16.00;57.70;;;;;;5072249;28;20178;-62
2023/04/25 00:15:42;;;;;;;2.05;1.52;;;15.90;57.70;;;;;;5071395;28;20586;-62
2023/04/25 00:18:08;;;;;;;3.95;1.48;;;15.90;57.70;;;;;;5074927;28;20265;-61
2023/04/25 00:20:35;;;;;;;1.60;1.42;;;16.00;57.60;;;;;;5075863;28;20219;-62
2023/04/25 00:23:00;;;;;;;2.00;1.30;;;15.90;57.60;;;;;;5073843;28;20178;-62
2023/04/25 00:25:26;;;;;;;1.95;1.35;;;15.90;58.30;;;;;;5074309;28;20222;-62
2023/04/25 00:27:52;;;;;;;2.15;1.10;;;15.90;57.70;;;;;;5075790;28;20166;-63
2023/04/25 00:30:17;;;;;;;2.17;1.33;;;15.90;57.70;;;;;;5074922;28;20216;-62
2023/04/25 00:32:43;;;;;;;2.38;1.60;;;15.90;57.70;;;;;;5075800;28;20261;-62
2023/04/25 00:35:09;;;;;;;4.07;1.70;;;15.90;58.30;;;;;;5075369;28;20186;-62
2023/04/25 00:37:34;;;;;;;3.13;1.50;;;15.90;57.60;;;;;;5074991;28;20239;-62
2023/04/25 00:40:00;;;;;;;2.33;1.60;;;15.90;57.60;;;;;;5075906;28;20649;-62
2023/04/25 00:42:25;;;;;;;1.65;1.23;;;15.90;57.50;;;;;;5075319;28;20614;-62
2023/04/25 00:44:52;;;;;;;2.53;1.42;;;15.90;57.50;;;;;;5073551;28;20706;-62
2023/04/25 00:47:17;;;;;;;2.58;2.03;;;15.90;57.50;;;;;;5075286;28;20174;-62
2023/04/25 00:49:43;;;;;;;1.50;1.40;;;15.80;57.40;;;;;;5075484;28;20193;-62
2023/04/25 00:52:09;;;;;;;2.85;1.33;;;15.80;57.50;;;;;;5074393;28;20174;-62
2023/04/25 00:54:35;;;;;;;3.47;1.90;;;15.80;57.50;;;;;;5075646;28;20175;-62
2023/04/25 00:57:01;;;;;;;3.10;1.55;;;15.80;57.50;;;;;;5075354;28;20218;-62
2023/04/25 00:59:27;;;;;;;2.50;1.63;;;15.80;57.60;;;;;;5073054;28;20683;-62
2023/04/25 01:01:52;;;;;;;1.60;1.45;;;15.80;57.60;;;;;;5074332;28;20261;-62
2023/04/25 01:04:18;;;;;;;3.95;1.80;;;15.80;57.60;;;;;;5073805;28;20257;-62
2023/04/25 01:06:44;;;;;;;2.10;1.50;;;15.80;57.60;;;;;;5074429;28;20570;-62
2023/04/25 01:09:09;;;;;;;2.97;1.50;;;15.80;57.60;;;;;;5074790;28;20709;-62
2023/04/25 01:11:35;;;;;;;2.97;1.67;;;15.80;57.60;;;;;;5075246;28;20179;-62
2023/04/25 01:14:01;;;;;;;2.03;1.40;;;15.80;57.60;;;;;;5074443;28;20261;-62
2023/04/25 01:16:27;;;;;;;3.95;1.60;;;15.80;57.70;;;;;;5074551;28;20241;-62
2023/04/25 01:18:53;;;;;;;2.30;1.50;;;15.80;57.70;;;;;;5074190;28;20174;-62
2023/04/25 01:21:19;;;;;;;2.80;1.55;;;15.80;57.70;;;;;;5073287;28;20186;-61
2023/04/25 01:23:45;;;;;;;3.92;1.40;;;15.70;57.70;;;;;;5073496;28;20258;-62
2023/04/25 01:26:11;;;;;;;3.05;1.50;;;15.80;57.80;;;;;;5074054;28;20182;-62
2023/04/25 01:28:37;;;;;;;2.78;1.98;;;15.80;57.70;;;;;;5074575;28;20250;-62
2023/04/25 01:31:03;;;;;;;2.97;1.88;;;15.70;57.70;;;;;;5073513;28;20174;-62
2023/04/25 01:33:29;;;;;;;3.35;1.60;;;15.70;57.70;;;;;;5072511;28;20281;-62
2023/04/25 01:35:54;;;;;;;3.28;1.65;;;15.70;57.70;;;;;;5074722;28;20209;-62
2023/04/25 01:38:20;;;;;;;2.15;1.33;;;15.70;57.70;;;;;;5074442;28;20197;-62
2023/04/25 01:40:46;;;;;;;4.00;1.60;;;15.70;57.70;;;;;;5074461;28;20182;-61
2023/04/25 01:43:14;;;;;;;2.33;1.50;;;15.70;57.70;;;;;;5074152;28;20585;-62
2023/04/25 01:45:40;;;;;;;3.78;2.00;;;15.70;57.70;;;;;;5073268;28;20517;-62
2023/04/25 01:48:07;;;;;;;2.88;1.85;;;15.70;57.80;;;;;;5073389;28;20175;-63
2023/04/25 01:50:32;;;;;;;3.25;1.88;;;15.70;57.80;;;;;;5074319;28;20189;-62
2023/04/25 01:52:58;;;;;;;3.05;1.42;;;15.70;57.80;;;;;;5074320;28;20549;-62
2023/04/25 01:55:23;;;;;;;2.22;1.50;;;15.70;57.80;;;;;;5073020;28;20189;-62
2023/04/25 01:57:49;;;;;;;3.78;1.58;;;15.70;57.80;;;;;;5074086;28;20565;-62
2023/04/25 02:00:15;;;;;;;2.17;1.70;;;15.70;57.80;;;;;;5073727;28;20175;-62
2023/04/25 02:02:40;;;;;;;3.20;1.75;;;15.70;57.80;;;;;;5073349;28;20262;-62
2023/04/25 02:05:06;;;;;;;2.97;1.73;;;15.70;57.80;;;;;;5073616;28;20176;-62
2023/04/25 02:07:32;;;;;;;2.05;1.40;;;15.60;57.70;;;;;;5074214;28;20261;-62
2023/04/25 02:09:57;;;;;;;3.70;2.17;;;15.60;57.70;;;;;;5073507;28;20594;-62
2023/04/25 02:12:23;;;;;;;2.30;1.55;;;15.60;57.70;;;;;;5073660;28;20652;-62
2023/04/25 02:14:48;;;;;;;3.13;1.80;;;15.60;57.80;;;;;;5073897;28;20178;-61
2023/04/25 02:17:14;;;;;;;3.30;1.60;;;15.70;57.90;;;;;;5072706;28;20210;-62
2023/04/25 02:19:39;;;;;;;3.20;1.70;;;15.70;57.80;;;;;;5073714;28;20544;-62
2023/04/25 02:22:05;;;;;;;3.15;1.83;;;15.60;57.80;;;;;;5073566;28;20171;-62
2023/04/25 02:24:31;;;;;;;3.17;1.80;;;15.60;57.80;;;;;;5072485;28;20586;-61
2023/04/25 02:26:57;;;;;;;3.58;1.58;;;15.60;57.80;;;;;;5073794;28;20193;-63
2023/04/25 02:29:23;;;;;;;3.35;2.00;;;15.60;57.80;;;;;;5072507;28;20171;-63
2023/04/25 02:31:48;;;;;;;3.97;2.00;;;15.60;57.80;;;;;;5073595;28;20299;-62
2023/04/25 02:34:14;;;;;;;2.72;1.40;;;15.60;57.80;;;;;;5073316;28;20652;-62
2023/04/25 02:36:39;;;;;;;3.08;1.83;;;15.60;57.80;;;;;;5072780;28;20213;-61
2023/04/25 02:39:05;;;;;;;2.35;1.50;;;15.60;57.90;;;;;;5072631;28;20179;-62
2023/04/25 02:41:30;;;;;;;5.13;1.85;;;15.60;57.90;;;;;;5073229;28;20185;-62
2023/04/25 02:43:56;;;;;;;3.30;1.67;;;15.60;57.90;;;;;;5072660;28;20182;-62
2023/04/25 02:46:21;;;;;;;3.13;1.52;;;15.60;57.90;;;;;;5073200;28;20185;-62
2023/04/25 02:48:47;;;;;;;2.63;1.77;;;15.60;57.90;;;;;;5073397;28;20166;-62
2023/04/25 02:51:13;;;;;;;4.45;2.22;;;15.60;57.90;;;;;;5072424;28;20179;-62
2023/04/25 02:53:39;;;;;;;4.18;2.03;;;15.60;57.90;;;;;;5073415;28;20174;-62
2023/04/25 02:56:05;;;;;;;3.53;1.92;;;15.60;58.00;;;;;;5072901;28;20209;-62
2023/04/25 02:58:30;;;;;;;3.53;1.90;;;15.60;58.00;;;;;;5072292;28;20167;-61
2023/04/25 03:00:56;;;;;;;4.05;1.73;;;15.50;57.90;;;;;;5073188;28;20174;-62
2023/04/25 03:03:21;;;;;;;2.97;1.98;;;15.50;57.90;;;;;;5072915;28;20536;-62
2023/04/25 03:05:50;;;;;;;3.88;1.80;;;15.50;57.90;;;;;;5072532;28;20708;-62
2023/04/25 03:08:16;;;;;;;3.63;1.77;;;15.50;57.90;;;;;;5072838;28;20228;-62
2023/04/25 03:10:42;;;;;;;5.38;2.20;;;15.50;57.90;;;;;;5073076;28;20186;-61
2023/04/25 03:13:07;;;;;;;3.72;1.90;;;15.50;57.90;;;;;;5071885;28;20181;-62
2023/04/25 03:15:33;;;;;;;3.65;1.83;;;15.50;58.00;;;;;;5072643;28;20718;-62
2023/04/25 03:17:59;;;;;;;2.78;1.90;;;15.50;57.90;;;;;;5073018;28;20178;-62
2023/04/25 03:20:24;;;;;;;4.43;2.10;;;15.50;58.00;;;;;;5071686;28;20650;-62
2023/04/25 03:22:50;;;;;;;2.80;1.60;;;15.50;58.00;;;;;;5072695;28;20181;-61
2023/04/25 03:25:15;;;;;;;4.13;1.80;;;15.50;58.00;;;;;;5072118;28;20229;-62
2023/04/25 03:27:41;;;;;;;4.45;2.10;;;15.50;58.00;;;;;;5071887;28;20197;-62
2023/04/25 03:30:07;;;;;;;2.97;1.75;;;15.50;58.00;;;;;;5072419;28;20183;-62
2023/04/25 03:32:33;;;;;;;2.83;1.98;;;15.50;58.00;;;;;;5071997;28;20186;-62
2023/04/25 03:34:59;;;;;;;3.95;1.70;;;15.50;58.00;;;;;;5072871;28;20738;-62
2023/04/25 03:37:24;;;;;;;3.88;1.98;;;15.50;58.00;;;;;;5072464;28;20665;-62
2023/04/25 03:39:50;;;;;;;5.70;2.20;;;15.40;58.00;;;;;;5072165;28;20750;-61
2023/04/25 03:42:16;;;;;;;2.90;1.80;;;15.40;57.90;;;;;;5072290;28;20185;-62
2023/04/25 03:44:41;;;;;;;4.05;1.88;;;15.40;58.00;;;;;;5072616;28;20651;-61
2023/04/25 03:47:07;;;;;;;3.50;1.95;;;15.50;58.00;;;;;;5071402;28;20183;-63
2023/04/25 03:49:33;;;;;;;3.30;1.85;;;15.40;58.00;;;;;;5072778;28;20171;-62
2023/04/25 03:52:00;;;;;;;3.90;1.88;;;15.40;58.00;;;;;;5075436;28;20254;-62
2023/04/25 03:54:25;;;;;;;2.88;2.10;;;15.40;58.00;;;;;;5075660;28;20257;-62
2023/04/25 03:56:51;;;;;;;4.45;1.88;;;15.40;58.00;;;;;;5076632;28;20642;-61
2023/04/25 03:59:16;;;;;;;1.95;1.77;;;15.40;58.00;;;;;;5076156;28;20174;-62
2023/04/25 04:01:42;;;;;;;4.25;2.05;;;15.40;58.00;;;;;;5075604;28;20197;-62
2023/04/25 04:04:07;;;;;;;3.90;1.92;;;15.40;58.00;;;;;;5076312;28;20273;-62
2023/04/25 04:06:33;;;;;;;3.10;1.80;;;15.40;58.00;;;;;;5076501;28;20257;-62
2023/04/25 04:08:59;;;;;;;3.30;1.98;;;15.40;58.00;;;;;;5075711;28;20175;-61
2023/04/25 04:11:24;;;;;;;5.32;2.20;;;15.40;58.00;;;;;;5075781;28;20175;-61
2023/04/25 04:13:50;;;;;;;3.63;1.80;;;15.40;58.00;;;;;;5076232;28;20178;-61
2023/04/25 04:16:15;;;;;;;2.97;1.83;;;15.40;58.00;;;;;;5074941;28;20217;-61
2023/04/25 04:18:41;;;;;;;3.80;2.00;;;15.40;58.00;;;;;;5076208;28;20178;-61
2023/04/25 04:21:06;;;;;;;2.67;2.15;;;15.40;58.00;;;;;;5075986;28;20171;-61
2023/04/25 04:23:32;;;;;;;4.03;1.83;;;15.40;58.00;;;;;;5075342;28;20548;-61
2023/04/25 04:25:57;;;;;;;2.78;1.60;;;15.30;57.90;;;;;;5075718;28;20705;-62
2023/04/25 04:28:23;;;;;;;4.10;1.88;;;15.30;58.00;;;;;;5075701;28;20179;-62
2023/04/25 04:30:50;;;;;;;3.97;2.10;;;15.30;58.00;;;;;;5075079;28;20190;-62
2023/04/25 04:33:18;;;;;;;3.00;2.10;;;15.30;57.90;;;;;;5075438;28;20532;-62
2023/04/25 04:35:46;;;;;;;3.30;1.70;;;15.30;58.00;;;;;;5075310;28;20218;-62
2023/04/25 04:38:14;;;;;;;4.25;2.00;;;15.30;58.00;;;;;;5075339;28;20177;-61
2023/04/25 04:40:41;;;;;;;2.35;1.58;;;15.30;58.00;;;;;;5075629;28;20185;-61
2023/04/25 04:43:08;;;;;;;5.97;2.25;;;15.30;58.00;;;;;;5074756;28;20171;-62
2023/04/25 04:45:34;;;;;;;2.45;1.92;;;15.30;58.00;;;;;;5075675;28;20232;-62
2023/04/25 04:47:59;;;;;;;3.28;1.52;;;15.30;58.00;;;;;;5075500;28;20573;-62
2023/04/25 04:50:26;;;;;;;3.20;1.90;;;15.30;58.00;;;;;;5074494;28;20675;-62
2023/04/25 04:52:51;;;;;;;3.53;1.85;;;15.30;58.00;;;;;;5075401;28;20188;-62
2023/04/25 04:55:17;;;;;;;4.85;2.13;;;15.30;58.00;;;;;;5074975;28;20170;-62
2023/04/25 04:57:43;;;;;;;2.30;1.60;;;15.30;58.00;;;;;;5074617;28;20262;-62
2023/04/25 05:00:10;;;;;;;3.03;1.80;;;15.30;58.10;;;;;;5075022;28;20167;-62
2023/04/25 05:02:37;;;;;;;4.00;1.88;;;15.30;58.00;;;;;;5074685;28;20185;-62
2023/04/25 05:05:04;;;;;;;2.33;1.42;;;15.40;57.90;;;;;;5074773;28;20533;-62
2023/04/25 05:07:29;;;;;;;3.50;2.05;;;15.40;57.80;;;;;;5075204;28;20262;-62
2023/04/25 05:09:55;;;;;;;3.28;1.88;;;15.50;57.80;;;;;;5075430;28;20622;-61
2023/04/25 05:12:23;;;;;;;3.28;2.00;;;15.50;57.70;;;;;;5074091;28;20720;-61
2023/04/25 05:14:49;;;;;;;3.30;1.98;;;15.50;57.70;;;;;;5074978;28;20171;-61
2023/04/25 05:17:15;;;;;;;3.90;1.80;;;15.50;57.60;;;;;;5074656;28;20217;-61
2023/04/25 05:19:40;;;;;;;3.63;1.80;;;15.50;57.60;;;;;;5074482;28;20182;-61
2023/04/25 05:22:06;;;;;;;2.63;1.67;;;15.50;57.70;;;;;;5074551;28;20178;-62
2023/04/25 05:24:31;;;;;;;4.32;1.88;;;15.50;57.70;;;;;;5074720;28;20253;-61
2023/04/25 05:26:57;;;;;;;2.47;2.10;;;15.50;57.70;;;;;;5074074;28;20193;-63
2023/04/25 05:29:22;;;;;;;3.05;2.00;;;15.50;57.70;;;;;;5074650;28;20175;-63
2023/04/25 05:31:48;;;;;;;3.38;1.83;;;15.50;57.80;;;;;;5074655;28;20629;-62
2023/04/25 05:34:14;;;;;;;2.60;2.20;;;15.50;57.90;;;;;;5073867;28;20173;-62
2023/04/25 05:36:39;;;;;;;3.00;1.90;;;15.40;57.80;;;;;;5074609;28;20647;-60
2023/04/25 05:39:06;;;;;;;3.63;2.08;;;15.40;57.80;;;;;;5073854;28;20178;-62
2023/04/25 05:41:31;;;;;;;2.85;1.75;;;15.40;57.80;;;;;;5074627;28;20636;-62
2023/04/25 05:43:57;;;;;;;3.47;1.83;;;15.40;57.80;;;;;;5074682;28;20174;-62
2023/04/25 05:46:22;;;;;;;3.47;1.98;;;15.40;57.70;;;;;;5073606;28;20232;-62
2023/04/25 05:48:48;;;;;;;3.67;2.10;;;15.50;57.60;;;;;;5074529;28;20254;-62
2023/04/25 05:51:13;;;;;;;3.22;1.55;;;15.40;57.60;;;;;;5074175;28;20178;-62
2023/04/25 05:53:39;;;;;;;3.42;1.70;;;15.40;57.70;;;;;;5073718;28;20555;-62
2023/04/25 05:56:05;;;;;;;2.50;1.80;;;15.40;57.70;;;;;;5073724;28;20202;-61
2023/04/25 05:58:30;;;;;;;4.35;1.80;;;15.40;57.70;;;;;;5074377;28;20221;-61
2023/04/25 06:00:56;;;;;;;3.58;1.92;;;15.50;57.50;;;;;;5073624;28;20202;-61
2023/04/25 06:03:21;;;;;;;3.25;1.60;;;15.50;57.50;;;;;;5073952;28;20178;-62
2023/04/25 06:05:47;;;;;;;2.50;1.63;;;15.60;57.40;;;;;;5074117;28;20356;-62
2023/04/25 06:08:13;;;;;;;2.25;1.75;;;15.70;57.30;;;;;;5073025;28;20700;-62
2023/04/25 06:10:38;;;;;;;3.00;1.52;;;15.90;57.10;;;;;;5073890;28;20248;-62
2023/04/25 06:13:04;;;;;;;2.55;1.88;;;16.10;56.90;;;;;;5074028;28;20205;-62
2023/04/25 06:15:32;;;;;;;1.77;1.10;;;16.20;56.50;;;;;;5072123;28;20179;-62
2023/04/25 06:17:57;;;;;;;2.83;1.60;;;16.40;56.30;;;;;;5073638;28;20680;-62
2023/04/25 06:20:24;;;;;;;3.13;1.85;;;16.40;56.10;;;;;;5073584;28;20174;-62
2023/04/25 06:22:50;;;;;;;1.88;1.23;;;16.50;56.20;;;;;;5072903;28;20183;-62
2023/04/25 06:25:16;;;;;;;2.42;1.63;;;16.50;56.10;;;;;;5073156;28;20253;-63
2023/04/25 06:27:41;;;;;;;1.73;1.23;;;16.60;56.10;;;;;;5073468;28;20214;-63
2023/04/25 06:30:07;;;;;;;2.50;1.50;;;16.80;56.00;;;;;;5072747;28;20220;-63
2023/04/25 06:32:34;;;;;;;1.52;1.38;;;16.90;55.80;;;;;;5073484;28;20257;-62
2023/04/25 06:34:59;;;;;;;1.45;1.30;;;17.00;55.60;;;;;;5073511;28;20252;-63
2023/04/25 06:37:25;;;;;;;1.95;1.60;;;17.10;55.50;;;;;;5072275;28;20680;-62
2023/04/25 06:39:50;;;;;;;2.83;1.52;;;17.30;55.40;;;;;;5073305;28;20177;-62
2023/04/25 06:42:16;;;;;;;4.07;1.55;;;17.40;55.30;;;;;;5072886;28;20280;-63
2023/04/25 06:44:42;;;;;;;2.70;1.60;;;17.40;55.30;;;;;;5072505;28;20257;-62
2023/04/25 06:47:07;;;;;;;5.28;2.25;;;17.50;55.20;;;;;;5073068;28;20269;-65
2023/04/25 06:49:33;;;;;;;3.88;1.40;;;17.60;55.30;;;;;;5072614;28;20258;-66
2023/04/25 06:51:58;;;;;;;3.72;1.50;;;17.70;55.30;;;;;;5073195;28;20262;-64
2023/04/25 06:54:24;;;;;;;4.43;1.35;;;17.80;55.20;;;;;;5072528;28;20178;-63
2023/04/25 06:56:50;;;;;;;2.55;1.50;;;17.80;55.20;;;;;;5072276;28;20222;-63
2023/04/25 06:59:15;;;;;;;3.67;1.60;;;17.90;55.20;;;;;;5071445;28;20243;-64
2023/04/25 07:01:41;;;;;;;4.70;1.30;;;17.80;55.30;;;;;;5072831;28;20691;-64
2023/04/25 07:04:06;;;;;;;3.70;1.50;;;17.80;55.40;;;;;;5071671;28;20185;-64
2023/04/25 07:06:32;;;;;;;4.03;1.52;;;17.70;55.60;;;;;;5073076;28;20228;-63
2023/04/25 07:08:58;;;;;;;3.75;1.38;;;17.70;55.70;;;;;;5072938;28;20258;-62
2023/04/25 07:11:23;;;;;;;4.13;2.17;;;17.60;55.90;;;;;;5071966;28;20662;-64
2023/04/25 07:13:49;;;;;;;1.88;1.20;;;17.50;56.10;;;;;;5072986;28;20234;-62
2023/04/25 07:16:14;;;;;;;2.00;1.10;;;17.40;55.90;;;;;;5072568;28;20707;-63
2023/04/25 07:18:40;;;;;;;4.40;1.65;;;17.40;55.90;;;;;;5071854;28;20659;-63
2023/04/25 07:21:05;;;;;;;4.25;1.67;;;17.40;55.90;;;;;;5072479;28;20189;-64
2023/04/25 07:23:31;;;;;;;2.47;1.30;;;17.40;55.80;;;;;;5072640;28;20192;-66
2023/04/25 07:25:56;;;;;;;2.88;1.33;;;17.50;55.70;;;;;;5071122;28;20375;-64
2023/04/25 07:28:22;;;;;;;6.13;1.27;;;17.60;55.80;;;;;;5072593;28;20194;-64
2023/04/25 07:30:47;;;;;;;6.53;1.75;;;17.60;55.50;;;;;;5072404;28;20179;-66
2023/04/25 07:33:13;;;;;;;2.92;1.33;;;17.70;55.60;;;;;;5071326;28;20170;-65
2023/04/25 07:35:39;;;;;;;5.85;1.50;;;17.60;55.70;;;;;;5072015;28;20193;-64
2023/04/25 07:38:06;;;;;;;4.13;1.55;;;17.60;55.80;;;;;;5071798;28;20200;-63
2023/04/25 07:40:32;;;;;;;4.40;2.08;;;17.60;56.00;;;;;;5071371;28;20170;-63
2023/04/25 07:42:57;;;;;;;3.55;1.48;;;17.60;56.10;;;;;;5072355;28;20644;-63
2023/04/25 07:45:24;;;;;;;5.35;1.65;;;17.50;56.20;;;;;;5071767;28;20166;-64
2023/04/25 07:47:49;;;;;;;4.45;1.67;;;17.50;56.30;;;;;;5071437;28;20585;-64
2023/04/25 07:50:15;;;;;;;3.50;1.60;;;17.50;56.30;;;;;;5071943;28;20641;-63
2023/04/25 07:52:40;;;;;;;4.72;1.50;;;17.40;56.50;;;;;;5072428;28;20170;-63
2023/04/25 07:55:06;;;;;;;2.03;1.48;;;17.40;56.50;;;;;;5071573;28;20171;-63
2023/04/25 07:57:32;;;;;;;3.65;1.50;;;17.30;56.60;;;;;;5072437;28;20214;-63
2023/04/25 07:59:57;;;;;;;3.08;1.63;;;17.30;56.70;;;;;;5071635;28;20182;-63
2023/04/25 08:02:23;;;;;;;5.32;1.95;;;17.30;56.80;;;;;;5071903;28;20645;-63
2023/04/25 08:04:49;;;;;;;2.70;1.40;;;17.20;56.80;;;;;;5072179;28;20171;-63
2023/04/25 08:07:15;;;;;;;2.55;1.42;;;17.20;56.80;;;;;;5071371;28;20209;-63
2023/04/25 08:09:40;;;;;;;3.72;1.60;;;17.20;56.90;;;;;;5071829;28;20206;-67
2023/04/25 08:12:06;;;;;;;1.75;1.35;;;17.10;57.00;;;;;;5072247;28;20190;-67
2023/04/25 08:14:35;;;;;;;2.75;1.40;;;17.10;57.00;;;;;;5071619;28;20519;-66
2023/04/25 08:17:03;;;;;;;2.75;1.40;;;17.10;57.10;;;;;;5072176;28;20735;-67
2023/04/25 08:19:28;;;;;;;3.80;1.70;;;17.00;57.00;;;;;;5072045;28;20174;-68
2023/04/25 08:21:55;;;;;;;8.60;2.00;;;16.90;57.10;;;;;;5071332;28;20182;-62
2023/04/25 08:24:21;;;;;;;4.65;1.27;;;16.90;57.20;;;;;;5071600;28;20747;-63
2023/04/25 08:26:46;;;;;;;3.97;1.48;;;16.90;57.10;;;;;;5072036;28;20179;-63
2023/04/25 08:29:12;;;;;;;3.15;1.60;;;16.90;57.10;;;;;;5071106;28;20166;-69
2023/04/25 08:31:37;;;;;;;3.28;1.40;;;16.90;57.00;;;;;;5072385;28;20212;-63
2023/04/25 08:34:03;;;;;;;5.65;1.60;;;16.90;57.00;;;;;;5072192;28;20555;-64
2023/04/25 08:36:28;;;;;;;3.33;1.38;;;16.90;57.00;;;;;;5071087;28;20198;-63
2023/04/25 08:38:54;;;;;;;3.72;1.10;;;16.90;57.00;;;;;;5074487;28;20170;-63
2023/04/25 08:41:20;;;;;;;2.20;1.30;;;16.90;57.00;;;;;;5075513;28;20264;-64
2023/04/25 08:43:46;;;;;;;2.80;1.50;;;16.90;57.00;;;;;;5075126;28;20198;-65
2023/04/25 08:46:12;;;;;;;2.85;1.50;;;16.90;56.90;;;;;;5074179;28;20205;-64
2023/04/25 08:48:37;;;;;;;1.92;1.10;;;16.90;56.90;;;;;;5074327;28;20300;-64
2023/04/25 08:51:03;;;;;;;3.65;1.60;;;16.90;56.80;;;;;;5073546;28;20193;-67
2023/04/25 08:53:31;;;;;;;3.53;1.20;;;16.90;56.90;;;;;;5075126;28;20170;-64
2023/04/25 08:55:58;;;;;;;2.40;1.50;;;16.90;56.80;;;;;;5075455;28;20202;-64
2023/04/25 08:58:23;;;;;;;3.35;1.55;;;16.90;56.80;;;;;;5074732;28;20170;-65
2023/04/25 09:00:49;;;;;;;2.55;1.15;;;16.90;56.90;;;;;;5075328;28;20177;-63
2023/04/25 09:03:15;;;;;;;5.30;1.63;;;16.90;56.90;;;;;;5074249;28;20174;-65
2023/04/25 09:05:41;;;;;;;2.85;1.17;;;16.80;56.80;;;;;;5075243;28;20182;-64
2023/04/25 09:08:07;;;;;;;2.80;1.13;;;16.80;56.70;;;;;;5074840;28;20166;-63
2023/04/25 09:10:33;;;;;;;2.75;1.30;;;16.80;56.80;;;;;;5074585;28;20170;-63
2023/04/25 09:13:03;;;;;;;3.97;1.20;;;16.80;56.80;;;;;;5074945;28;20170;-62
2023/04/25 09:15:29;;;;;;;2.47;1.23;;;16.90;56.80;;;;;;5074609;28;20633;-64
2023/04/25 09:17:58;;;;;;;2.90;1.40;;;16.90;56.70;;;;;;5074372;28;20181;-63
2023/04/25 09:20:24;;;;;;;2.08;1.17;;;16.90;56.50;;;;;;5074718;28;20560;-63
2023/04/25 09:23:00;;;;;;;1.77;1.05;;;17.00;56.40;;;;;;5075145;28;20174;-63
2023/04/25 09:25:26;;;;;;;3.05;1.20;;;17.10;56.30;;;;;;5073865;28;20252;-65
2023/04/25 09:27:52;;;;;;;3.28;1.30;;;17.10;56.20;;;;;;5075235;28;20202;-64
2023/04/25 09:30:18;;;;;;;4.18;1.95;;;17.10;56.10;;;;;;5074492;28;20596;-69
2023/04/25 09:32:44;;;;;;;3.30;1.20;;;17.10;56.10;;;;;;5073572;28;20273;-61
2023/04/25 09:35:11;;;;;;;3.58;1.45;;;17.20;56.20;;;;;;5074014;28;20170;-62
2023/04/25 09:37:36;;;;;;;3.22;1.30;;;17.20;56.00;;;;;;5074159;28;20304;-62
2023/04/25 09:40:05;;;;;;;2.22;1.02;;;17.30;56.10;;;;;;5072168;28;20701;-62
2023/04/25 09:42:31;;;;;;;2.80;1.17;;;17.30;56.10;;;;;;5071661;28;20209;-63
2023/04/25 09:44:57;;;;;;;2.33;1.17;;;17.30;56.10;;;;;;5074363;28;20179;-61
2023/04/25 09:47:24;;;;;;;2.40;1.38;;;17.40;56.10;;;;;;5073140;28;20201;-62
2023/04/25 09:49:50;;;;;;;1.65;1.20;;;17.30;56.20;;;;;;5074189;28;20178;-62
2023/04/25 09:52:17;;;;;;;2.65;1.30;;;17.20;56.40;;;;;;5073924;28;20178;-62
2023/04/25 09:54:43;;;;;;;2.38;1.10;;;17.10;56.50;;;;;;5074183;28;20220;-62
2023/04/25 09:57:16;;;;;;;3.10;1.50;;;17.20;56.50;;;;;;5072312;28;20214;-62
2023/04/25 09:59:50;;;;;;;2.30;1.30;;;17.30;56.40;;;;;;5073334;28;20182;-63
2023/04/25 10:02:20;;;;;;;2.97;1.17;;;17.30;56.20;;;;;;5073503;28;20175;-64
2023/04/25 10:04:54;;;;;;;3.45;1.50;;;17.40;56.20;;;;;;5074248;28;20184;-64
2023/04/25 10:07:21;;;;;;;4.57;2.20;;;17.40;56.10;;;;;;5073019;28;20189;-65
2023/04/25 10:09:50;;;;;;;6.30;2.22;;;17.50;55.90;;;;;;5073989;28;20174;-63
2023/04/25 10:12:16;;;;;;;8.13;2.13;;;17.40;55.80;;;;;;5072466;28;20182;-63
2023/04/25 10:14:41;;;;;;;8.93;3.00;;;17.30;56.00;;;;;;5071856;28;20178;-62
2023/04/25 10:17:07;;;;;;;9.55;2.10;;;17.20;56.00;;;;;;5073511;28;20347;-63
2023/04/25 10:19:33;;;;;;;7.27;2.80;;;17.20;56.00;;;;;;5072823;28;20471;-64
2023/04/25 10:22:11;;;;;;;5.35;2.30;;;17.30;55.80;;;;;;5073010;28;20181;-62
2023/04/25 10:24:37;;;;;;;11.10;2.38;;;17.40;55.60;;;;;;5072293;28;20766;-62
2023/04/25 10:27:03;;;;;;;4.20;2.22;;;17.40;55.40;;;;;;5072431;28;20201;-63
2023/04/25 10:29:29;;;;;;;6.05;2.00;;;17.40;55.40;;;;;;5071600;28;20629;-65
2023/04/25 10:31:55;;;;;;;7.03;2.38;;;17.30;55.50;;;;;;5073995;28;20178;-66
2023/04/25 10:34:24;;;;;;;6.22;2.30;;;17.20;55.50;;;;;;5073254;28;20641;-65
2023/04/25 10:36:51;;;;;;;11.93;2.10;;;17.20;55.60;;;;;;5072831;28;20213;-65
2023/04/25 10:39:27;;;;;;;3.72;2.03;;;17.10;55.60;;;;;;5073270;28;20222;-66
2023/04/25 10:41:58;;;;;;;5.80;1.70;;;17.10;55.70;;;;;;5072608;28;20243;-65
2023/04/25 10:44:31;;;;;;;4.35;1.70;;;17.00;55.80;;;;;;5073216;28;20677;-65
2023/04/25 10:47:00;;;;;;;3.22;1.30;;;17.00;55.90;;;;;;5073345;28;20175;-64
2023/04/25 10:49:35;;;;;;;4.57;2.22;;;17.00;55.90;;;;;;5072197;28;20179;-64
2023/04/25 10:52:26;;;;;;;4.07;1.40;;;17.00;55.90;;;;;;5072990;28;20195;-64
2023/04/25 10:54:52;;;;;;;3.13;1.83;;;17.00;55.90;;;;;;5073037;28;20202;-64
2023/04/25 10:57:31;;;;;;;4.32;2.08;;;17.00;55.90;;;;;;5071996;28;20296;-65
2023/04/25 11:00:09;;;;;;;4.05;1.40;;;17.00;55.90;;;;;;5072795;28;20174;-63
2023/04/25 11:02:42;;;;;;;6.63;2.10;;;17.00;55.90;;;;;;5071560;28;20543;-65
2023/04/25 11:05:08;;;;;;;7.32;2.03;;;17.00;55.80;;;;;;5072804;28;20186;-65
2023/04/25 11:07:37;;;;;;;8.38;1.77;;;17.10;55.80;;;;;;5071754;28;20178;-64
2023/04/25 11:10:04;;;;;;;4.15;1.65;;;17.10;55.80;;;;;;5072187;28;20255;-63
2023/04/25 11:12:30;;;;;;;6.63;1.98;;;17.10;55.70;;;;;;5072593;28;20185;-63
2023/04/25 11:15:03;;;;;;;6.32;2.00;;;17.10;55.80;;;;;;5072918;28;20181;-64
2023/04/25 11:17:29;;;;;;;4.10;1.42;;;17.10;55.80;;;;;;5071588;28;20217;-62
2023/04/25 11:19:56;;;;;;;4.60;1.60;;;17.10;55.80;;;;;;5072909;28;20174;-62
2023/04/25 11:22:21;;;;;;;4.65;1.70;;;17.10;55.70;;;;;;5072575;28;20178;-61
2023/04/25 11:24:47;;;;;;;5.20;1.50;;;17.10;55.70;;;;;;5071798;28;20214;-62
2023/04/25 11:27:12;;;;;;;6.43;1.80;;;17.20;55.70;;;;;;5072342;28;20177;-62
2023/04/25 11:29:38;;;;;;;5.63;1.58;;;17.20;55.60;;;;;;5072611;28;20645;-62
2023/04/25 11:32:04;;;;;;;5.30;1.75;;;17.20;55.50;;;;;;5072084;28;20198;-63
2023/04/25 11:34:33;;;;;;;3.75;1.58;;;17.20;55.40;;;;;;5072621;28;20257;-63
2023/04/25 11:36:59;;;;;;;4.10;1.55;;;17.30;55.40;;;;;;5072477;28;20225;-63
2023/04/25 11:39:25;;;;;;;3.95;1.35;;;17.30;55.30;;;;;;5071561;28;20364;-64
2023/04/25 11:41:51;;;;;;;3.15;1.30;;;17.40;55.20;;;;;;5072630;28;20274;-64
2023/04/25 11:44:17;;;;;;;7.80;1.70;;;17.40;55.10;;;;;;5072018;28;20178;-65
2023/04/25 11:46:43;;;;;;;2.03;1.15;;;17.30;55.20;;;;;;5072047;28;20184;-64
2023/04/25 11:49:09;;;;;;;4.35;1.50;;;17.20;55.20;;;;;;5072250;28;20536;-64
2023/04/25 11:51:44;;;;;;;2.35;1.35;;;17.20;55.30;;;;;;5072637;28;20170;-64
2023/04/25 11:54:11;;;;;;;4.68;1.73;;;17.20;55.40;;;;;;5071453;28;20257;-64
2023/04/25 11:56:37;;;;;;;3.97;1.48;;;17.20;55.30;;;;;;5072395;28;20214;-64
2023/04/25 11:59:04;;;;;;;4.25;1.20;;;17.20;55.30;;;;;;5071883;28;20504;-65
2023/04/25 12:01:30;;;;;;;3.60;1.50;;;17.40;54.90;;;;;;5072354;28;20232;-65
2023/04/25 12:04:09;;;;;;;6.15;1.35;;;17.30;54.90;;;;;;5072558;28;20175;-65
2023/04/25 12:06:38;;;;;;;2.75;1.20;;;17.20;55.00;;;;;;5071718;28;20174;-63
2023/04/25 12:09:04;;;;;;;3.30;1.08;;;17.30;55.00;;;;;;5072263;28;20182;-64
2023/04/25 12:11:32;;;;;;;3.28;1.17;;;17.20;54.90;;;;;;5072575;28;20170;-63
2023/04/25 12:14:02;;;;;;;2.83;1.10;;;17.10;55.00;;;;;;5075649;28;20202;-63
2023/04/25 12:16:28;;;;;;;2.05;1.00;;;17.10;55.20;;;;;;5075925;28;20210;-63
2023/04/25 12:18:53;;;;;;;2.75;0.98;;;17.10;55.10;;;;;;5074868;28;20530;-63
2023/04/25 12:21:20;;;;;;;2.78;1.20;;;17.00;55.20;;;;;;5075092;28;20656;-64
2023/04/25 12:23:46;;;;;;;3.15;1.38;;;17.00;55.30;;;;;;5075755;28;20174;-63
2023/04/25 12:26:11;;;;;;;1.45;0.88;;;16.90;55.20;;;;;;5075616;28;20625;-64
2023/04/25 12:28:37;;;;;;;2.00;0.98;;;16.90;55.10;;;;;;5075435;28;20178;-63
2023/04/25 12:31:04;;;;;;;2.13;1.02;;;16.90;55.10;;;;;;5075948;28;20170;-64
2023/04/25 12:33:33;;;;;;;1.55;1.10;;;16.90;55.10;;;;;;5075867;28;20224;-64
2023/04/25 12:36:00;;;;;;;2.63;1.42;;;16.90;55.10;;;;;;5074980;28;20255;-63
2023/04/25 12:38:30;;;;;;;2.83;1.10;;;16.90;55.00;;;;;;5075356;28;20179;-64
2023/04/25 12:40:55;;;;;;;1.55;1.13;;;16.90;55.00;;;;;;5075932;28;20532;-64
2023/04/25 12:43:21;;;;;;;2.38;0.90;;;16.90;55.00;;;;;;5074828;28;20656;-65